Time;durP1;ratioP1;P1;durP2;ratioP2;P2;SDS_P1;SDS_P2;PMS_P1;PMS_P2;Temp;Humidity;BMP_temperature;BMP_pressure;BME280_temperature;BME280_humidity;BME280_pressure;Samples;Min_cycle;Max_cycle;Signal;HPM_P1;HPM_P2
2022/07/21 00:00:12;;;;;;;3.60;3.40;;;;;;;;;;5058493;28;20211;-62
2022/07/21 00:02:59;;;;;;;3.58;3.38;;;;;;;;;;5062526;28;20223;-62
2022/07/21 00:05:47;;;;;;;3.50;3.30;;;;;;;;;;5062568;28;20232;-62
2022/07/21 00:08:34;;;;;;;3.97;3.78;;;;;;;;;;5058125;28;20289;-62
2022/07/21 00:11:21;;;;;;;3.70;3.50;;;;;;;;;;5059155;28;20216;-62
2022/07/21 00:14:10;;;;;;;4.03;3.83;;;;;;;;;;5057359;28;20193;-62
2022/07/21 00:16:58;;;;;;;3.70;3.50;;;;;;;;;;5060452;28;20212;-62
2022/07/21 00:19:46;;;;;;;3.88;3.67;;;;;;;;;;5054496;28;20641;-64
2022/07/21 00:22:33;;;;;;;3.97;3.70;;;;;;;;;;5061002;28;20287;-64
2022/07/21 00:25:20;;;;;;;4.20;3.90;;;;;;;;;;5062361;28;20285;-62
2022/07/21 00:28:07;;;;;;;3.67;3.47;;;;;;;;;;5055289;28;20210;-62
2022/07/21 00:30:54;;;;;;;4.25;3.97;;;;;;;;;;5059512;28;20659;-62
2022/07/21 00:33:43;;;;;;;3.97;3.70;;;;;;;;;;5059660;28;20214;-62
2022/07/21 00:36:30;;;;;;;3.92;3.72;;;;;;;;;;5060757;28;20226;-62
2022/07/21 00:39:17;;;;;;;3.90;3.70;;;;;;;;;;5063462;28;20231;-62
2022/07/21 00:42:04;;;;;;;3.60;3.40;;;;;;;;;;5063080;28;20220;-62
2022/07/21 00:44:52;;;;;;;3.70;3.50;;;;;;;;;;5056691;28;20227;-62
2022/07/21 00:47:39;;;;;;;4.05;3.75;;;;;;;;;;5064440;28;20203;-62
2022/07/21 00:50:28;;;;;;;3.97;3.78;;;;;;;;;;5058884;28;20227;-62
2022/07/21 00:53:15;;;;;;;4.13;3.92;;;;;;;;;;5056907;28;20211;-62
2022/07/21 00:56:02;;;;;;;4.28;4.03;;;;;;;;;;5060142;28;20561;-62
2022/07/21 00:58:50;;;;;;;3.80;3.60;;;;;;;;;;5063766;28;20214;-62
2022/07/21 01:01:37;;;;;;;4.18;3.97;;;;;;;;;;5067561;28;20432;-62
2022/07/21 01:04:24;;;;;;;4.38;4.07;;;;;;;;;;5060973;28;20592;-62
2022/07/21 01:07:14;;;;;;;3.75;3.55;;;;;;;;;;5057859;28;20204;-62
2022/07/21 01:10:01;;;;;;;4.28;4.03;;;;;;;;;;5059347;28;20687;-62
2022/07/21 01:12:49;;;;;;;3.80;3.60;;;;;;;;;;5056748;28;20229;-62
2022/07/21 01:15:36;;;;;;;4.00;3.70;;;;;;;;;;5059740;28;20217;-62
2022/07/21 01:18:23;;;;;;;4.10;3.90;;;;;;;;;;5055751;28;20665;-62
2022/07/21 01:21:33;;;;;;;4.00;3.80;;;;;;;;;;5062695;28;20703;-62
2022/07/21 01:24:20;;;;;;;4.28;4.00;;;;;;;;;;5055661;28;20599;-62
2022/07/21 01:27:07;;;;;;;3.80;3.60;;;;;;;;;;5057775;28;20234;-62
2022/07/21 01:29:55;;;;;;;4.13;3.92;;;;;;;;;;5061329;28;20588;-62
2022/07/21 01:32:42;;;;;;;4.35;4.05;;;;;;;;;;5059462;28;20214;-62
2022/07/21 01:35:29;;;;;;;4.00;3.80;;;;;;;;;;5056477;28;20204;-62
2022/07/21 01:41:31;;;;;;;4.20;4.00;;;;;;;;;;5059346;28;20206;-62
2022/07/21 01:44:19;;;;;;;4.10;3.90;;;;;;;;;;5061181;28;20223;-61
2022/07/21 01:47:06;;;;;;;4.15;3.95;;;;;;;;;;5058659;28;20245;-62
2022/07/21 01:49:53;;;;;;;4.25;4.05;;;;;;;;;;5055712;28;20207;-62
2022/07/21 01:52:40;;;;;;;4.00;3.80;;;;;;;;;;5061034;28;20211;-62
2022/07/21 01:55:30;;;;;;;4.47;4.20;;;;;;;;;;5054444;28;20689;-62
2022/07/21 01:58:17;;;;;;;4.30;4.03;;;;;;;;;;5060502;28;20291;-62
2022/07/21 02:01:04;;;;;;;4.65;4.35;;;;;;;;;;5054173;28;20203;-62
2022/07/21 02:03:51;;;;;;;3.80;3.60;;;;;;;;;;5061184;28;20215;-62
2022/07/21 02:06:39;;;;;;;4.38;4.18;;;;;;;;;;5053855;28;20230;-62
2022/07/21 02:09:26;;;;;;;3.85;3.65;;;;;;;;;;5058924;28;20209;-62
2022/07/21 02:12:14;;;;;;;4.10;3.90;;;;;;;;;;5061703;28;20563;-62
2022/07/21 02:15:01;;;;;;;4.20;4.00;;;;;;;;;;5061113;28;20210;-62
2022/07/21 02:17:48;;;;;;;4.60;4.35;;;;;;;;;;5057948;28;20213;-62
2022/07/21 02:20:36;;;;;;;4.50;4.20;;;;;;;;;;5057124;28;20204;-62
2022/07/21 02:23:23;;;;;;;4.32;4.07;;;;;;;;;;5058281;28;20246;-62
2022/07/21 02:26:10;;;;;;;4.35;4.07;;;;;;;;;;5061447;28;20232;-62
2022/07/21 02:28:59;;;;;;;4.22;4.03;;;;;;;;;;5053637;28;20211;-62
2022/07/21 02:31:46;;;;;;;4.10;3.90;;;;;;;;;;5063331;28;20577;-62
2022/07/21 02:34:33;;;;;;;4.15;3.95;;;;;;;;;;5056278;28;20206;-62
2022/07/21 02:37:20;;;;;;;4.35;4.15;;;;;;;;;;5058586;28;20203;-61
2022/07/21 02:40:08;;;;;;;4.60;4.30;;;;;;;;;;5056133;28;20552;-62
2022/07/21 02:42:55;;;;;;;4.90;4.60;;;;;;;;;;5057480;28;20246;-63
2022/07/21 02:45:44;;;;;;;4.45;4.15;;;;;;;;;;5061291;28;20230;-62
2022/07/21 02:48:31;;;;;;;4.55;4.30;;;;;;;;;;5056080;28;20758;-62
2022/07/21 02:51:18;;;;;;;4.07;3.80;;;;;;;;;;5052094;28;20289;-62
2022/07/21 02:54:05;;;;;;;4.30;4.00;;;;;;;;;;5061194;28;20260;-63
2022/07/21 02:56:52;;;;;;;4.20;3.90;;;;;;;;;;5059175;28;20206;-62
2022/07/21 02:59:38;;;;;;;4.60;4.30;;;;;;;;;;5060751;28;20636;-62
2022/07/21 03:02:27;;;;;;;4.38;4.05;;;;;;;;;;5059601;28;20234;-62
2022/07/21 03:05:14;;;;;;;4.22;4.03;;;;;;;;;;5059410;28;20606;-62
2022/07/21 03:08:01;;;;;;;4.05;3.85;;;;;;;;;;5065580;28;20219;-62
2022/07/21 03:10:49;;;;;;;4.63;4.43;;;;;;;;;;5060388;28;20276;-62
2022/07/21 03:13:36;;;;;;;4.32;4.13;;;;;;;;;;5063253;28;20218;-62
2022/07/21 03:16:23;;;;;;;4.70;4.40;;;;;;;;;;5065544;28;20210;-61
2022/07/21 03:19:11;;;;;;;4.72;4.43;;;;;;;;;;5064216;28;20245;-62
2022/07/21 03:21:58;;;;;;;4.38;4.10;;;;;;;;;;5065582;28;20324;-62
2022/07/21 03:24:45;;;;;;;4.70;4.40;;;;;;;;;;5064968;28;20230;-62
2022/07/21 03:27:35;;;;;;;4.70;4.40;;;;;;;;;;5060275;28;20721;-62
2022/07/21 03:30:23;;;;;;;4.32;4.13;;;;;;;;;;5058227;28;20215;-62
2022/07/21 03:33:10;;;;;;;4.47;4.18;;;;;;;;;;5066638;28;20207;-62
2022/07/21 03:35:59;;;;;;;4.70;4.40;;;;;;;;;;5059378;28;20226;-62
2022/07/21 03:38:46;;;;;;;4.78;4.47;;;;;;;;;;5057639;28;20204;-61
2022/07/21 03:41:33;;;;;;;4.45;4.15;;;;;;;;;;5065140;28;20215;-62
2022/07/21 03:44:20;;;;;;;4.57;4.28;;;;;;;;;;5056316;28;20210;-62
2022/07/21 03:47:07;;;;;;;4.53;4.30;;;;;;;;;;5059079;28;20237;-62
2022/07/21 03:49:54;;;;;;;4.47;4.28;;;;;;;;;;5066348;28;20679;-62
2022/07/21 03:52:43;;;;;;;4.55;4.30;;;;;;;;;;5060664;28;20215;-62
2022/07/21 03:55:31;;;;;;;4.32;4.03;;;;;;;;;;5063568;28;20647;-62
2022/07/21 03:58:17;;;;;;;4.28;4.07;;;;;;;;;;5062028;28;20214;-62
2022/07/21 04:01:04;;;;;;;4.38;4.15;;;;;;;;;;5056848;28;20207;-62
2022/07/21 04:03:51;;;;;;;4.28;4.07;;;;;;;;;;5061350;28;20698;-62
2022/07/21 04:06:38;;;;;;;4.55;4.25;;;;;;;;;;5059506;28;20746;-62
2022/07/21 04:09:27;;;;;;;4.35;4.15;;;;;;;;;;5059367;28;20219;-62
2022/07/21 04:12:14;;;;;;;4.40;4.20;;;;;;;;;;5057486;28;20210;-62
2022/07/21 04:15:01;;;;;;;4.07;3.80;;;;;;;;;;5061604;28;20211;-64
2022/07/21 04:17:48;;;;;;;4.22;4.03;;;;;;;;;;5061304;28;20216;-62
2022/07/21 04:20:35;;;;;;;4.30;4.10;;;;;;;;;;5060998;28;20211;-61
2022/07/21 04:23:22;;;;;;;4.05;3.85;;;;;;;;;;5059313;28;20285;-62
2022/07/21 04:26:10;;;;;;;4.57;4.28;;;;;;;;;;5062154;28;20923;-61
2022/07/21 04:28:57;;;;;;;4.40;4.10;;;;;;;;;;5058875;28;20297;-62
2022/07/21 04:31:44;;;;;;;4.10;3.90;;;;;;;;;;5057928;28;20714;-62
2022/07/21 04:34:31;;;;;;;4.53;4.22;;;;;;;;;;5057634;28;20203;-62
2022/07/21 04:37:18;;;;;;;4.30;4.10;;;;;;;;;;5064024;28;20205;-62
2022/07/21 04:40:07;;;;;;;4.38;4.18;;;;;;;;;;5058102;28;20236;-62
2022/07/21 04:42:56;;;;;;;4.30;4.00;;;;;;;;;;5059267;28;20203;-62
2022/07/21 04:45:42;;;;;;;4.28;4.07;;;;;;;;;;5062219;28;20706;-62
2022/07/21 04:48:29;;;;;;;4.28;4.05;;;;;;;;;;5060344;28;20207;-62
2022/07/21 04:51:16;;;;;;;4.05;3.85;;;;;;;;;;5057015;28;20254;-62
2022/07/21 04:54:04;;;;;;;4.70;4.40;;;;;;;;;;5056842;28;20211;-62
2022/07/21 04:56:51;;;;;;;4.13;3.92;;;;;;;;;;5063447;28;20576;-62
2022/07/21 04:59:39;;;;;;;4.13;3.92;;;;;;;;;;5057867;28;20259;-62
2022/07/21 05:02:26;;;;;;;4.30;4.10;;;;;;;;;;5058951;28;20207;-62
2022/07/21 05:05:13;;;;;;;4.53;4.22;;;;;;;;;;5060135;28;20281;-61
2022/07/21 05:08:00;;;;;;;4.63;4.35;;;;;;;;;;5060475;28;20285;-62
2022/07/21 05:10:47;;;;;;;4.13;3.92;;;;;;;;;;5062006;28;20195;-62
2022/07/21 05:13:34;;;;;;;4.25;3.95;;;;;;;;;;5060280;28;20211;-62
2022/07/21 05:16:23;;;;;;;4.55;4.25;;;;;;;;;;5062021;28;20199;-62
2022/07/21 05:19:10;;;;;;;4.25;3.95;;;;;;;;;;5060857;28;20218;-62
2022/07/21 05:21:57;;;;;;;4.18;3.97;;;;;;;;;;5059422;28;20235;-62
2022/07/21 05:24:44;;;;;;;3.88;3.67;;;;;;;;;;5061193;28;20215;-62
2022/07/21 05:27:31;;;;;;;4.18;3.97;;;;;;;;;;5058149;28;20345;-64
2022/07/21 05:30:18;;;;;;;4.07;3.88;;;;;;;;;;5060628;28;20231;-62
2022/07/21 05:33:06;;;;;;;4.20;4.00;;;;;;;;;;5061777;28;20757;-62
2022/07/21 05:35:53;;;;;;;4.22;4.03;;;;;;;;;;5064237;28;20207;-62
2022/07/21 05:38:40;;;;;;;3.90;3.70;;;;;;;;;;5064565;28;20690;-62
2022/07/21 05:41:27;;;;;;;4.30;4.00;;;;;;;;;;5056796;28;20211;-62
2022/07/21 05:44:14;;;;;;;4.28;4.03;;;;;;;;;;5060096;28;20208;-62
2022/07/21 05:47:01;;;;;;;4.05;3.85;;;;;;;;;;5055314;28;20328;-62
2022/07/21 05:49:49;;;;;;;3.92;3.72;;;;;;;;;;5065446;28;20213;-62
2022/07/21 05:52:36;;;;;;;4.10;3.90;;;;;;;;;;5061222;28;20707;-63
2022/07/21 05:55:23;;;;;;;4.15;3.95;;;;;;;;;;5056795;28;20572;-62
2022/07/21 05:58:11;;;;;;;4.00;3.80;;;;;;;;;;5055963;28;20684;-62
2022/07/21 06:01:12;;;;;;;3.83;3.63;;;;;;;;;;5060944;28;20203;-62
2022/07/21 06:03:59;;;;;;;4.20;4.00;;;;;;;;;;5058239;28;20212;-62
2022/07/21 06:06:47;;;;;;;4.32;4.03;;;;;;;;;;5065074;28;20737;-62
2022/07/21 06:09:34;;;;;;;4.00;3.80;;;;;;;;;;5056247;28;20208;-63
2022/07/21 06:12:21;;;;;;;4.20;4.00;;;;;;;;;;5056847;28;20208;-62
2022/07/21 06:15:09;;;;;;;4.30;4.10;;;;;;;;;;5059041;28;20328;-68
2022/07/21 06:17:56;;;;;;;3.88;3.67;;;;;;;;;;5057452;28;20262;-62
2022/07/21 06:20:43;;;;;;;3.95;3.75;;;;;;;;;;5064414;28;20218;-62
2022/07/21 06:23:31;;;;;;;4.03;3.83;;;;;;;;;;5058321;28;20317;-62
2022/07/21 06:26:18;;;;;;;3.95;3.75;;;;;;;;;;5055618;28;20223;-62
2022/07/21 06:29:06;;;;;;;4.28;4.07;;;;;;;;;;5056741;28;20629;-62
2022/07/21 06:31:53;;;;;;;3.85;3.65;;;;;;;;;;5055719;28;20226;-62
2022/07/21 06:34:40;;;;;;;3.65;3.45;;;;;;;;;;5058282;28;20215;-62
2022/07/21 06:37:26;;;;;;;4.05;3.85;;;;;;;;;;5054459;28;20679;-62
2022/07/21 06:40:15;;;;;;;3.88;3.67;;;;;;;;;;5055712;28;20737;-63
2022/07/21 06:43:02;;;;;;;3.83;3.63;;;;;;;;;;5066298;28;20199;-63
2022/07/21 06:45:50;;;;;;;3.80;3.60;;;;;;;;;;5060517;28;20613;-63
2022/07/21 06:48:37;;;;;;;4.50;4.20;;;;;;;;;;5067016;28;20211;-63
2022/07/21 06:51:24;;;;;;;4.15;3.95;;;;;;;;;;5055176;28;20211;-62
2022/07/21 06:54:11;;;;;;;3.97;3.70;;;;;;;;;;5055143;28;20269;-61
2022/07/21 06:56:59;;;;;;;3.60;3.40;;;;;;;;;;5061711;28;20204;-61
2022/07/21 06:59:46;;;;;;;4.03;3.33;;;;;;;;;;5055828;28;20216;-61
2022/07/21 07:02:33;;;;;;;3.70;3.50;;;;;;;;;;5058156;28;20203;-61
2022/07/21 07:05:20;;;;;;;3.75;3.55;;;;;;;;;;5055938;28;20230;-61
2022/07/21 07:08:08;;;;;;;4.03;3.83;;;;;;;;;;5062390;28;20217;-62
2022/07/21 07:10:55;;;;;;;3.60;3.45;;;;;;;;;;5063965;28;20214;-61
2022/07/21 07:13:43;;;;;;;3.92;3.72;;;;;;;;;;5060269;28;20214;-62
2022/07/21 07:16:30;;;;;;;3.60;3.40;;;;;;;;;;5056603;28;20262;-62
2022/07/21 07:19:17;;;;;;;3.58;3.38;;;;;;;;;;5059075;28;20207;-62
2022/07/21 07:22:04;;;;;;;3.50;3.40;;;;;;;;;;5057501;28;20307;-62
2022/07/21 07:24:51;;;;;;;3.72;3.53;;;;;;;;;;5059853;28;20214;-62
2022/07/21 07:27:38;;;;;;;3.65;3.45;;;;;;;;;;5056711;28;20282;-62
2022/07/21 07:30:26;;;;;;;3.53;3.33;;;;;;;;;;5049784;28;20210;-62
2022/07/21 07:33:13;;;;;;;3.60;3.40;;;;;;;;;;5058468;28;20208;-65
2022/07/21 07:36:00;;;;;;;3.40;3.30;;;;;;;;;;5063971;28;20203;-62
2022/07/21 07:38:48;;;;;;;3.42;3.22;;;;;;;;;;5055762;28;20210;-62
2022/07/21 07:41:35;;;;;;;3.53;3.42;;;;;;;;;;5056631;28;20262;-63
2022/07/21 07:44:22;;;;;;;3.40;3.30;;;;;;;;;;5058891;28;20214;-63
2022/07/21 07:47:10;;;;;;;3.40;3.20;;;;;;;;;;5054491;28;20717;-65
2022/07/21 07:49:58;;;;;;;3.70;3.50;;;;;;;;;;5059157;28;20199;-63
2022/07/21 07:52:45;;;;;;;3.30;3.20;;;;;;;;;;5057062;28;20787;-63
2022/07/21 07:55:32;;;;;;;3.38;3.28;;;;;;;;;;5062209;28;20264;-63
2022/07/21 07:58:19;;;;;;;3.25;3.15;;;;;;;;;;5069382;28;20221;-63
2022/07/21 08:01:07;;;;;;;3.58;3.38;;;;;;;;;;5063376;28;20209;-63
2022/07/21 08:03:56;;;;;;;3.63;3.42;;;;;;;;;;5060579;28;20206;-63
2022/07/21 08:06:42;;;;;;;3.10;3.00;;;;;;;;;;5060216;28;20231;-63
2022/07/21 08:09:30;;;;;;;2.95;2.85;;;;;;;;;;5059211;28;20202;-63
2022/07/21 08:12:17;;;;;;;3.47;3.38;;;;;;;;;;5061254;28;20290;-61
2022/07/21 08:15:05;;;;;;;3.30;3.10;;;;;;;;;;5060032;28;20272;-65
2022/07/21 08:17:52;;;;;;;3.58;3.47;;;;;;;;;;5060515;28;20213;-65
2022/07/21 08:20:41;;;;;;;3.33;3.22;;;;;;;;;;5065901;28;20210;-65
2022/07/21 08:23:27;;;;;;;3.45;3.33;;;;;;;;;;5063309;28;20235;-62
2022/07/21 08:26:14;;;;;;;3.22;3.13;;;;;;;;;;5063224;28;20271;-63
2022/07/21 08:29:01;;;;;;;3.53;3.33;;;;;;;;;;5061256;28;20214;-63
2022/07/21 08:31:48;;;;;;;3.47;3.35;;;;;;;;;;5068483;28;20697;-62
2022/07/21 08:34:36;;;;;;;3.28;3.17;;;;;;;;;;5059145;28;20305;-63
2022/07/21 08:37:24;;;;;;;3.15;3.05;;;;;;;;;;5056851;28;20223;-62
2022/07/21 08:40:12;;;;;;;3.30;3.20;;;;;;;;;;5062397;28;20226;-62
2022/07/21 08:43:00;;;;;;;3.50;3.35;;;;;;;;;;5068072;28;20207;-62
2022/07/21 08:45:48;;;;;;;3.40;3.25;;;;;;;;;;5060937;28;20207;-62
2022/07/21 08:48:35;;;;;;;3.50;3.40;;;;;;;;;;5060432;28;20245;-62
2022/07/21 08:51:22;;;;;;;4.07;3.70;;;;;;;;;;5060540;28;20202;-60
2022/07/21 08:54:10;;;;;;;3.55;3.35;;;;;;;;;;5059929;28;20688;-60
2022/07/21 08:56:57;;;;;;;3.80;3.60;;;;;;;;;;5062384;28;20627;-61
2022/07/21 08:59:44;;;;;;;3.47;3.38;;;;;;;;;;5066081;28;20208;-61
2022/07/21 09:02:33;;;;;;;3.65;3.45;;;;;;;;;;5061201;28;20214;-60
2022/07/21 09:05:20;;;;;;;3.33;3.20;;;;;;;;;;5056605;28;20692;-60
2022/07/21 09:08:07;;;;;;;3.55;3.35;;;;;;;;;;5056530;28;20253;-60
2022/07/21 09:11:09;;;;;;;3.63;3.42;;;;;;;;;;5063100;28;20204;-61
2022/07/21 09:14:06;;;;;;;3.40;3.30;;;;;;;;;;5057387;28;20211;-61
2022/07/21 09:16:55;;;;;;;3.45;3.30;;;;;;;;;;5056904;28;20211;-60
2022/07/21 09:19:45;;;;;;;3.70;3.50;;;;;;;;;;5058978;28;20664;-61
2022/07/21 09:22:32;;;;;;;3.33;3.22;;;;;;;;;;5059655;28;20231;-60
2022/07/21 09:25:34;;;;;;;3.47;3.30;;;;;;;;;;5061913;28;20206;-61
2022/07/21 09:28:26;;;;;;;3.40;3.20;;;;;;;;;;5055369;28;20219;-61
2022/07/21 09:31:13;;;;;;;3.60;3.40;;;;;;;;;;5063851;28;20207;-61
2022/07/21 09:34:00;;;;;;;3.38;3.28;;;;;;;;;;5062237;28;20280;-61
2022/07/21 09:36:56;;;;;;;3.45;3.30;;;;;;;;;;5063618;28;20196;-61
2022/07/21 09:39:45;;;;;;;3.25;3.15;;;;;;;;;;5061943;28;20657;-61
2022/07/21 09:42:35;;;;;;;3.58;3.38;;;;;;;;;;5059030;28;20224;-61
2022/07/21 09:45:24;;;;;;;3.47;3.28;;;;;;;;;;5058863;28;20214;-61
2022/07/21 09:48:30;;;;;;;3.90;3.70;;;;;;;;;;5056353;28;20223;-60
2022/07/21 09:51:25;;;;;;;3.53;3.38;;;;;;;;;;5063333;28;20204;-60
2022/07/21 09:54:13;;;;;;;3.60;3.40;;;;;;;;;;5057665;28;20222;-60
2022/07/21 09:57:00;;;;;;;3.70;3.50;;;;;;;;;;5056115;28;20207;-60
2022/07/21 09:59:49;;;;;;;3.70;3.50;;;;;;;;;;5059173;28;20288;-61
2022/07/21 10:02:38;;;;;;;3.38;3.28;;;;;;;;;;5055637;28;20211;-60
2022/07/21 10:05:25;;;;;;;3.90;3.70;;;;;;;;;;5061098;28;20224;-61
2022/07/21 10:08:14;;;;;;;3.55;3.35;;;;;;;;;;5057891;28;20251;-60
2022/07/21 10:11:01;;;;;;;3.70;3.50;;;;;;;;;;5059068;28;20707;-60
2022/07/21 10:13:49;;;;;;;4.03;3.83;;;;;;;;;;5056680;28;20208;-61
2022/07/21 10:16:36;;;;;;;3.65;3.33;;;;;;;;;;5055129;28;20300;-61
2022/07/21 10:19:30;;;;;;;3.78;3.58;;;;;;;;;;5064673;28;20207;-61
2022/07/21 10:22:24;;;;;;;3.67;3.47;;;;;;;;;;5059864;28;20243;-62
2022/07/21 10:25:11;;;;;;;3.67;3.47;;;;;;;;;;5055722;28;20528;-60
2022/07/21 10:28:17;;;;;;;3.90;3.70;;;;;;;;;;5058862;28;20260;-61
2022/07/21 10:31:14;;;;;;;3.80;3.60;;;;;;;;;;5054024;28;20322;-61
2022/07/21 10:34:02;;;;;;;3.55;3.35;;;;;;;;;;5059429;28;20219;-61
2022/07/21 10:36:51;;;;;;;3.97;3.78;;;;;;;;;;5056653;28;20223;-61
2022/07/21 10:39:39;;;;;;;3.50;3.30;;;;;;;;;;5060296;28;20681;-61
2022/07/21 10:42:26;;;;;;;3.90;3.70;;;;;;;;;;5058787;28;20203;-61
2022/07/21 10:45:30;;;;;;;3.65;3.45;;;;;;;;;;5061919;28;20211;-61
2022/07/21 10:48:48;;;;;;;3.72;3.50;;;;;;;;;;5060808;28;20232;-60
2022/07/21 10:51:37;;;;;;;3.65;3.45;;;;;;;;;;5054934;28;20214;-61
2022/07/21 10:54:26;;;;;;;3.85;3.65;;;;;;;;;;5052143;28;20199;-61
2022/07/21 10:57:29;;;;;;;3.72;3.58;;;;;;;;;;5064497;28;20286;-62
2022/07/21 11:00:22;;;;;;;3.92;3.72;;;;;;;;;;5056170;28;20210;-61
2022/07/21 11:03:16;;;;;;;3.80;3.60;;;;;;;;;;5060164;28;20226;-61
2022/07/21 11:06:19;;;;;;;4.30;4.00;;;;;;;;;;5059032;28;20230;-61
2022/07/21 11:09:12;;;;;;;3.88;3.67;;;;;;;;;;5063220;28;20215;-61
2022/07/21 11:12:03;;;;;;;4.03;3.83;;;;;;;;;;5058060;28;20208;-61
2022/07/21 11:14:51;;;;;;;4.40;4.10;;;;;;;;;;5060111;28;20207;-61
2022/07/21 11:17:40;;;;;;;4.05;3.85;;;;;;;;;;5057308;28;20903;-61
2022/07/21 11:20:27;;;;;;;3.85;3.65;;;;;;;;;;5057378;28;20215;-61
2022/07/21 11:23:14;;;;;;;3.65;3.45;;;;;;;;;;5055005;28;20606;-62
2022/07/21 11:26:01;;;;;;;3.90;3.70;;;;;;;;;;5058920;28;20203;-62
2022/07/21 11:29:05;;;;;;;3.75;3.55;;;;;;;;;;5061713;28;20704;-62
2022/07/21 11:31:52;;;;;;;4.05;3.85;;;;;;;;;;5061590;28;20210;-61
2022/07/21 11:34:42;;;;;;;3.90;3.70;;;;;;;;;;5068331;28;20211;-61
2022/07/21 11:37:31;;;;;;;3.80;3.60;;;;;;;;;;5060271;28;20203;-62
2022/07/21 11:40:20;;;;;;;4.05;3.85;;;;;;;;;;5059099;28;20200;-63
2022/07/21 11:43:07;;;;;;;3.60;3.40;;;;;;;;;;5061531;28;20598;-62
2022/07/21 11:45:56;;;;;;;3.92;3.72;;;;;;;;;;5056916;28;20211;-63
2022/07/21 11:48:43;;;;;;;3.78;3.58;;;;;;;;;;5061245;28;20560;-62
2022/07/21 11:51:30;;;;;;;3.70;3.50;;;;;;;;;;5058642;28;20207;-62
2022/07/21 11:54:24;;;;;;;3.92;3.72;;;;;;;;;;5061355;28;20663;-62
2022/07/21 11:57:12;;;;;;;3.95;3.75;;;;;;;;;;5065409;28;20195;-61
2022/07/21 11:59:59;;;;;;;3.95;3.75;;;;;;;;;;5059924;28;20222;-62
2022/07/21 12:02:48;;;;;;;4.18;3.97;;;;;;;;;;5058643;28;20207;-61
2022/07/21 12:05:37;;;;;;;4.03;3.83;;;;;;;;;;5059626;28;20230;-62
2022/07/21 12:08:24;;;;;;;3.97;3.78;;;;;;;;;;5059494;28;20223;-61
2022/07/21 12:11:12;;;;;;;4.18;3.97;;;;;;;;;;5062103;28;20769;-62
2022/07/21 12:14:01;;;;;;;4.13;3.92;;;;;;;;;;5067581;28;20211;-61
2022/07/21 12:16:49;;;;;;;3.80;3.60;;;;;;;;;;5059334;28;20207;-61
2022/07/21 12:19:38;;;;;;;4.53;4.20;;;;;;;;;;5066551;28;20705;-62
2022/07/21 12:22:34;;;;;;;4.15;3.85;;;;;;;;;;5059938;28;20313;-61
2022/07/21 12:25:33;;;;;;;4.40;4.05;;;;;;;;;;5063195;28;20200;-62
2022/07/21 12:28:20;;;;;;;4.30;4.07;;;;;;;;;;5060276;28;20230;-62
2022/07/21 12:31:11;;;;;;;4.28;4.07;;;;;;;;;;5058081;28;20214;-62
2022/07/21 12:34:11;;;;;;;4.18;3.97;;;;;;;;;;5064897;28;20662;-61
2022/07/21 12:37:00;;;;;;;4.45;4.15;;;;;;;;;;5059607;28;20647;-61
2022/07/21 12:40:02;;;;;;;4.30;4.10;;;;;;;;;;5055108;28;20215;-61
2022/07/21 12:42:49;;;;;;;4.07;3.88;;;;;;;;;;5060144;28;20206;-62
2022/07/21 12:45:48;;;;;;;3.80;3.60;;;;;;;;;;5062163;28;20238;-61
2022/07/21 12:48:36;;;;;;;3.80;3.60;;;;;;;;;;5057572;28;20231;-62
2022/07/21 12:51:24;;;;;;;4.22;4.03;;;;;;;;;;5057844;28;20725;-62
2022/07/21 12:54:12;;;;;;;4.00;3.80;;;;;;;;;;5059603;28;20208;-62
2022/07/21 12:56:59;;;;;;;4.32;4.10;;;;;;;;;;5060354;28;20277;-62
2022/07/21 12:59:46;;;;;;;4.03;3.83;;;;;;;;;;5059666;28;20291;-62
2022/07/21 13:02:46;;;;;;;3.97;3.78;;;;;;;;;;5062144;28;20592;-62
2022/07/21 13:05:33;;;;;;;4.35;4.15;;;;;;;;;;5060842;28;20815;-61
2022/07/21 13:08:20;;;;;;;4.20;4.00;;;;;;;;;;5057339;28;20222;-61
2022/07/21 13:11:09;;;;;;;4.60;4.40;;;;;;;;;;5053680;28;20235;-62
2022/07/21 13:13:57;;;;;;;4.18;3.97;;;;;;;;;;5056579;28;20211;-61
2022/07/21 13:16:44;;;;;;;4.50;4.30;;;;;;;;;;5060733;28;20212;-61
2022/07/21 13:19:31;;;;;;;4.00;3.80;;;;;;;;;;5058989;28;20207;-61
2022/07/21 13:22:18;;;;;;;4.05;3.85;;;;;;;;;;5058051;28;20243;-61
2022/07/21 13:25:06;;;;;;;4.10;3.88;;;;;;;;;;5058614;28;20208;-62
2022/07/21 13:27:55;;;;;;;4.35;4.15;;;;;;;;;;5061398;28;20224;-61
2022/07/21 13:30:42;;;;;;;4.53;3.97;;;;;;;;;;5059410;28;20281;-61
2022/07/21 13:33:29;;;;;;;4.55;4.25;;;;;;;;;;5062447;28;20211;-61
2022/07/21 13:36:16;;;;;;;4.50;4.20;;;;;;;;;;5054788;28;20222;-61
2022/07/21 13:39:04;;;;;;;4.53;4.30;;;;;;;;;;5056879;28;20707;-62
2022/07/21 13:41:51;;;;;;;4.68;4.38;;;;;;;;;;5060897;28;20207;-62
2022/07/21 13:44:40;;;;;;;4.45;4.05;;;;;;;;;;5057348;28;20774;-62
2022/07/21 13:47:27;;;;;;;4.30;4.10;;;;;;;;;;5056978;28;20223;-61
2022/07/21 13:50:14;;;;;;;4.45;4.25;;;;;;;;;;5063476;28;20221;-61
2022/07/21 13:53:00;;;;;;;4.50;4.28;;;;;;;;;;5061259;28;20203;-61
2022/07/21 13:55:48;;;;;;;4.40;4.10;;;;;;;;;;5056966;28;20692;-61
2022/07/21 13:58:36;;;;;;;4.43;4.20;;;;;;;;;;5058553;28;20314;-61
2022/07/21 14:01:24;;;;;;;4.50;4.30;;;;;;;;;;5056119;28;20211;-62
2022/07/21 14:04:11;;;;;;;4.55;4.30;;;;;;;;;;5059868;28;20242;-61
2022/07/21 14:06:58;;;;;;;4.90;4.60;;;;;;;;;;5057502;28;20227;-61
2022/07/21 14:09:45;;;;;;;4.10;3.90;;;;;;;;;;5057876;28;20235;-61
2022/07/21 14:12:32;;;;;;;4.97;4.20;;;;;;;;;;5065088;28;20207;-61
2022/07/21 14:15:19;;;;;;;4.43;4.22;;;;;;;;;;5058562;28;20218;-61
2022/07/21 14:18:08;;;;;;;4.10;3.90;;;;;;;;;;5053398;28;20286;-61
2022/07/21 14:20:54;;;;;;;4.30;4.10;;;;;;;;;;5059006;28;20262;-64
2022/07/21 14:23:41;;;;;;;4.47;4.20;;;;;;;;;;5052800;28;20369;-61
2022/07/21 14:26:28;;;;;;;4.72;4.50;;;;;;;;;;5058814;28;20211;-61
2022/07/21 14:29:17;;;;;;;4.60;4.40;;;;;;;;;;5052642;28;20277;-61
2022/07/21 14:32:04;;;;;;;4.63;4.22;;;;;;;;;;5057659;28;20207;-61
2022/07/21 14:34:53;;;;;;;4.95;4.65;;;;;;;;;;5061474;28;20503;-60
2022/07/21 14:37:40;;;;;;;4.95;4.55;;;;;;;;;;5056129;28;20207;-61
2022/07/21 14:40:27;;;;;;;4.60;4.30;;;;;;;;;;5055181;28;20210;-62
2022/07/21 14:43:14;;;;;;;4.55;4.25;;;;;;;;;;5056967;28;20196;-62
2022/07/21 14:46:01;;;;;;;4.78;4.53;;;;;;;;;;5055362;28;20201;-61
2022/07/21 14:48:48;;;;;;;4.68;4.47;;;;;;;;;;5052244;28;20227;-62
2022/07/21 14:51:37;;;;;;;4.68;4.38;;;;;;;;;;5055168;28;20207;-62
2022/07/21 14:54:24;;;;;;;4.40;4.20;;;;;;;;;;5056631;28;20227;-61
2022/07/21 14:57:11;;;;;;;4.57;4.28;;;;;;;;;;5054677;28;20203;-61
2022/07/21 14:59:58;;;;;;;5.03;4.63;;;;;;;;;;5053083;28;20195;-61
2022/07/21 15:02:45;;;;;;;5.13;4.72;;;;;;;;;;5058586;28;20690;-62
2022/07/21 15:05:32;;;;;;;4.50;4.30;;;;;;;;;;5060382;28;20282;-61
2022/07/21 15:08:20;;;;;;;4.25;4.05;;;;;;;;;;5058773;28;20223;-63
2022/07/21 15:11:07;;;;;;;4.72;4.43;;;;;;;;;;5055448;28;20214;-60
2022/07/21 15:13:54;;;;;;;4.78;4.38;;;;;;;;;;5058350;28;20254;-61
2022/07/21 15:16:42;;;;;;;4.47;4.28;;;;;;;;;;5064151;28;20210;-61
2022/07/21 15:19:30;;;;;;;4.78;4.47;;;;;;;;;;5054117;28;20226;-62
2022/07/21 15:22:17;;;;;;;4.88;4.57;;;;;;;;;;5057893;28;20234;-61
2022/07/21 15:25:09;;;;;;;4.38;4.18;;;;;;;;;;5052907;28;20227;-62
2022/07/21 15:27:56;;;;;;;4.60;4.40;;;;;;;;;;5060159;28;20203;-62
2022/07/21 15:30:44;;;;;;;4.75;4.50;;;;;;;;;;5057382;28;20710;-62
2022/07/21 15:33:31;;;;;;;4.57;4.32;;;;;;;;;;5058688;28;20750;-62
2022/07/21 15:36:18;;;;;;;5.00;4.70;;;;;;;;;;5057877;28;20248;-61
2022/07/21 15:39:05;;;;;;;5.15;4.70;;;;;;;;;;5055336;28;20290;-62
2022/07/21 15:41:54;;;;;;;4.50;4.30;;;;;;;;;;5057632;28;20211;-61
2022/07/21 15:44:41;;;;;;;4.75;4.50;;;;;;;;;;5053373;28;20214;-62
2022/07/21 15:47:28;;;;;;;4.72;4.45;;;;;;;;;;5058007;28;20212;-62
2022/07/21 15:50:15;;;;;;;4.90;4.60;;;;;;;;;;5058193;28;20238;-62
2022/07/21 15:53:02;;;;;;;4.93;4.60;;;;;;;;;;5056502;28;20588;-62
2022/07/21 15:55:49;;;;;;;5.18;4.88;;;;;;;;;;5054512;28;20754;-62
2022/07/21 15:59:33;;;;;;;4.75;4.50;;;;;;;;;;5056463;28;20206;-62
2022/07/21 16:01:44;;;;;;;4.55;4.35;;;;;;;;;;5053679;28;20676;-62
2022/07/21 16:04:32;;;;;;;4.93;4.72;;;;;;;;;;5058038;28;20694;-62
2022/07/21 16:07:19;;;;;;;5.07;4.78;;;;;;;;;;5056698;28;20208;-65
2022/07/21 16:10:07;;;;;;;4.60;4.30;;;;;;;;;;5061044;28;20345;-62
2022/07/21 16:12:54;;;;;;;4.63;4.38;;;;;;;;;;5057315;28;20274;-63
2022/07/21 16:15:42;;;;;;;4.72;4.50;;;;;;;;;;5059735;28;20272;-62
2022/07/21 16:18:29;;;;;;;5.20;4.90;;;;;;;;;;5063489;28;20670;-62
2022/07/21 16:21:16;;;;;;;5.13;4.82;;;;;;;;;;5061098;28;20211;-62
2022/07/21 16:24:03;;;;;;;5.10;4.80;;;;;;;;;;5056017;28;20264;-61
2022/07/21 16:26:51;;;;;;;4.78;4.50;;;;;;;;;;5062027;28;20249;-62
2022/07/21 16:29:38;;;;;;;4.85;4.43;;;;;;;;;;5058779;28;20226;-62
2022/07/21 16:32:26;;;;;;;4.90;4.65;;;;;;;;;;5064388;28;20214;-62
2022/07/21 16:35:15;;;;;;;4.97;4.68;;;;;;;;;;5059291;28;20211;-61
2022/07/21 16:38:03;;;;;;;4.45;4.25;;;;;;;;;;5056752;28;20203;-61
2022/07/21 16:40:50;;;;;;;4.68;4.47;;;;;;;;;;5058328;28;20284;-61
2022/07/21 16:43:37;;;;;;;5.28;4.97;;;;;;;;;;5058886;28;20556;-62
2022/07/21 16:46:24;;;;;;;5.28;4.97;;;;;;;;;;5061860;28;20341;-62
2022/07/21 16:49:13;;;;;;;4.85;4.55;;;;;;;;;;5058126;28;20228;-62
2022/07/21 16:52:00;;;;;;;4.90;4.60;;;;;;;;;;5058842;28;20664;-61